sensor_id;sensor_type;location;lat;lon;timestamp;P1;durP1;ratioP1;P2;durP2;ratioP2
40609;SDS011;26316;55.976;37.140;2022-11-15T00:02:10;4.15;;;1.85;;
40609;SDS011;26316;55.976;37.140;2022-11-15T00:04:54;2.58;;;1.75;;
40609;SDS011;26316;55.976;37.140;2022-11-15T00:07:38;2.28;;;1.42;;
40609;SDS011;26316;55.976;37.140;2022-11-15T00:10:23;3.17;;;1.50;;
40609;SDS011;26316;55.976;37.140;2022-11-15T00:13:10;1.75;;;1.08;;
40609;SDS011;26316;55.976;37.140;2022-11-15T00:15:57;1.92;;;1.60;;
40609;SDS011;26316;55.976;37.140;2022-11-15T00:18:42;2.85;;;1.52;;
40609;SDS011;26316;55.976;37.140;2022-11-15T00:21:27;2.40;;;1.40;;
40609;SDS011;26316;55.976;37.140;2022-11-15T00:24:11;3.47;;;1.55;;
40609;SDS011;26316;55.976;37.140;2022-11-15T00:26:55;6.00;;;1.85;;
40609;SDS011;26316;55.976;37.140;2022-11-15T00:29:39;2.78;;;1.63;;
40609;SDS011;26316;55.976;37.140;2022-11-15T00:32:32;3.65;;;1.40;;
40609;SDS011;26316;55.976;37.140;2022-11-15T00:35:17;3.92;;;1.50;;
40609;SDS011;26316;55.976;37.140;2022-11-15T00:38:02;4.68;;;1.85;;
40609;SDS011;26316;55.976;37.140;2022-11-15T00:40:46;3.33;;;1.75;;
40609;SDS011;26316;55.976;37.140;2022-11-15T00:43:31;4.13;;;1.42;;
40609;SDS011;26316;55.976;37.140;2022-11-15T00:46:16;4.22;;;1.65;;
40609;SDS011;26316;55.976;37.140;2022-11-15T00:49:00;3.33;;;1.35;;
40609;SDS011;26316;55.976;37.140;2022-11-15T00:51:44;3.95;;;1.50;;
40609;SDS011;26316;55.976;37.140;2022-11-15T00:54:29;3.20;;;1.20;;
40609;SDS011;26316;55.976;37.140;2022-11-15T00:57:12;3.45;;;1.70;;
40609;SDS011;26316;55.976;37.140;2022-11-15T00:59:57;2.40;;;1.38;;
40609;SDS011;26316;55.976;37.140;2022-11-15T01:02:41;2.00;;;1.30;;
40609;SDS011;26316;55.976;37.140;2022-11-15T01:05:26;3.67;;;1.35;;
40609;SDS011;26316;55.976;37.140;2022-11-15T01:08:14;3.53;;;1.45;;
40609;SDS011;26316;55.976;37.140;2022-11-15T01:11:07;5.93;;;1.80;;
40609;SDS011;26316;55.976;37.140;2022-11-15T01:13:52;2.00;;;1.42;;
40609;SDS011;26316;55.976;37.140;2022-11-15T01:16:36;4.28;;;1.60;;
40609;SDS011;26316;55.976;37.140;2022-11-15T01:19:21;3.38;;;1.45;;
40609;SDS011;26316;55.976;37.140;2022-11-15T01:22:06;2.35;;;1.20;;
40609;SDS011;26316;55.976;37.140;2022-11-15T01:24:50;4.10;;;1.30;;
40609;SDS011;26316;55.976;37.140;2022-11-15T01:27:35;5.90;;;1.60;;
40609;SDS011;26316;55.976;37.140;2022-11-15T01:30:19;2.95;;;1.48;;
40609;SDS011;26316;55.976;37.140;2022-11-15T01:33:04;2.25;;;1.55;;
40609;SDS011;26316;55.976;37.140;2022-11-15T01:35:48;3.58;;;1.40;;
40609;SDS011;26316;55.976;37.140;2022-11-15T01:38:32;4.47;;;2.00;;
40609;SDS011;26316;55.976;37.140;2022-11-15T01:41:17;2.88;;;1.52;;
40609;SDS011;26316;55.976;37.140;2022-11-15T01:47:23;2.55;;;1.20;;
40609;SDS011;26316;55.976;37.140;2022-11-15T01:50:12;3.40;;;1.75;;
40609;SDS011;26316;55.976;37.140;2022-11-15T01:52:58;1.60;;;1.42;;
40609;SDS011;26316;55.976;37.140;2022-11-15T01:55:43;3.53;;;1.38;;
40609;SDS011;26316;55.976;37.140;2022-11-15T01:58:28;3.00;;;1.60;;
40609;SDS011;26316;55.976;37.140;2022-11-15T02:01:12;2.95;;;2.20;;
40609;SDS011;26316;55.976;37.140;2022-11-15T02:03:58;4.63;;;2.17;;
40609;SDS011;26316;55.976;37.140;2022-11-15T02:06:44;4.55;;;2.38;;
40609;SDS011;26316;55.976;37.140;2022-11-15T02:09:29;5.07;;;2.22;;
40609;SDS011;26316;55.976;37.140;2022-11-15T02:12:14;7.53;;;2.50;;
40609;SDS011;26316;55.976;37.140;2022-11-15T02:15:02;5.30;;;2.25;;
40609;SDS011;26316;55.976;37.140;2022-11-15T02:18:49;3.83;;;2.33;;
40609;SDS011;26316;55.976;37.140;2022-11-15T02:21:21;5.93;;;2.92;;
40609;SDS011;26316;55.976;37.140;2022-11-15T02:30:45;3.85;;;1.90;;
40609;SDS011;26316;55.976;37.140;2022-11-15T02:45:28;3.38;;;1.70;;
40609;SDS011;26316;55.976;37.140;2022-11-15T02:48:15;4.90;;;1.67;;
40609;SDS011;26316;55.976;37.140;2022-11-15T02:50:59;7.10;;;1.75;;
40609;SDS011;26316;55.976;37.140;2022-11-15T02:53:44;3.72;;;1.50;;
40609;SDS011;26316;55.976;37.140;2022-11-15T02:56:28;2.72;;;1.70;;
40609;SDS011;26316;55.976;37.140;2022-11-15T02:59:19;4.10;;;1.90;;
40609;SDS011;26316;55.976;37.140;2022-11-15T03:08:46;4.63;;;1.83;;
40609;SDS011;26316;55.976;37.140;2022-11-15T03:11:53;4.60;;;1.98;;
40609;SDS011;26316;55.976;37.140;2022-11-15T03:17:48;3.40;;;1.23;;
40609;SDS011;26316;55.976;37.140;2022-11-15T03:20:35;4.60;;;1.92;;
40609;SDS011;26316;55.976;37.140;2022-11-15T03:23:20;2.92;;;1.70;;
40609;SDS011;26316;55.976;37.140;2022-11-15T03:26:05;3.55;;;1.60;;
40609;SDS011;26316;55.976;37.140;2022-11-15T03:28:54;1.90;;;1.20;;
40609;SDS011;26316;55.976;37.140;2022-11-15T03:31:42;4.20;;;1.70;;
40609;SDS011;26316;55.976;37.140;2022-11-15T03:34:33;5.20;;;1.80;;
40609;SDS011;26316;55.976;37.140;2022-11-15T03:37:20;4.55;;;1.70;;
40609;SDS011;26316;55.976;37.140;2022-11-15T03:40:06;3.53;;;1.83;;
40609;SDS011;26316;55.976;37.140;2022-11-15T03:42:55;3.03;;;1.50;;
40609;SDS011;26316;55.976;37.140;2022-11-15T03:45:44;3.88;;;1.55;;
40609;SDS011;26316;55.976;37.140;2022-11-15T03:48:34;3.70;;;1.77;;
40609;SDS011;26316;55.976;37.140;2022-11-15T03:51:21;5.90;;;1.95;;
40609;SDS011;26316;55.976;37.140;2022-11-15T03:54:06;4.53;;;1.80;;
40609;SDS011;26316;55.976;37.140;2022-11-15T03:56:50;8.02;;;1.88;;
40609;SDS011;26316;55.976;37.140;2022-11-15T03:59:35;3.70;;;1.77;;
40609;SDS011;26316;55.976;37.140;2022-11-15T04:02:20;3.95;;;2.00;;
40609;SDS011;26316;55.976;37.140;2022-11-15T04:05:04;4.93;;;1.90;;
40609;SDS011;26316;55.976;37.140;2022-11-15T04:07:48;2.85;;;1.50;;
40609;SDS011;26316;55.976;37.140;2022-11-15T04:10:32;2.97;;;1.55;;
40609;SDS011;26316;55.976;37.140;2022-11-15T04:13:17;4.85;;;2.17;;
40609;SDS011;26316;55.976;37.140;2022-11-15T04:16:01;8.95;;;2.03;;
40609;SDS011;26316;55.976;37.140;2022-11-15T04:18:46;5.97;;;2.35;;
40609;SDS011;26316;55.976;37.140;2022-11-15T04:21:50;7.72;;;2.92;;
40609;SDS011;26316;55.976;37.140;2022-11-15T04:24:55;5.53;;;2.63;;
40609;SDS011;26316;55.976;37.140;2022-11-15T04:27:40;8.55;;;2.55;;
40609;SDS011;26316;55.976;37.140;2022-11-15T04:30:24;6.30;;;2.03;;
40609;SDS011;26316;55.976;37.140;2022-11-15T04:33:09;5.13;;;2.22;;
40609;SDS011;26316;55.976;37.140;2022-11-15T04:35:53;3.90;;;1.67;;
40609;SDS011;26316;55.976;37.140;2022-11-15T04:38:57;3.38;;;1.95;;
40609;SDS011;26316;55.976;37.140;2022-11-15T04:41:41;3.10;;;1.80;;
40609;SDS011;26316;55.976;37.140;2022-11-15T04:44:25;5.57;;;1.63;;
40609;SDS011;26316;55.976;37.140;2022-11-15T04:47:09;5.60;;;2.20;;
40609;SDS011;26316;55.976;37.140;2022-11-15T04:49:53;6.30;;;2.03;;
40609;SDS011;26316;55.976;37.140;2022-11-15T04:52:37;6.32;;;1.83;;
40609;SDS011;26316;55.976;37.140;2022-11-15T04:55:22;3.97;;;1.92;;
40609;SDS011;26316;55.976;37.140;2022-11-15T04:58:06;6.38;;;2.22;;
40609;SDS011;26316;55.976;37.140;2022-11-15T05:00:50;5.65;;;2.13;;
40609;SDS011;26316;55.976;37.140;2022-11-15T05:03:34;4.93;;;1.90;;
40609;SDS011;26316;55.976;37.140;2022-11-15T05:06:37;4.63;;;1.85;;
40609;SDS011;26316;55.976;37.140;2022-11-15T05:09:24;2.80;;;1.77;;
40609;SDS011;26316;55.976;37.140;2022-11-15T05:12:08;5.20;;;1.92;;
40609;SDS011;26316;55.976;37.140;2022-11-15T05:14:52;7.78;;;2.20;;
40609;SDS011;26316;55.976;37.140;2022-11-15T05:17:36;5.07;;;2.13;;
40609;SDS011;26316;55.976;37.140;2022-11-15T05:20:21;8.02;;;2.15;;
40609;SDS011;26316;55.976;37.140;2022-11-15T05:23:05;4.70;;;2.05;;
40609;SDS011;26316;55.976;37.140;2022-11-15T05:25:49;8.00;;;2.60;;
40609;SDS011;26316;55.976;37.140;2022-11-15T05:28:34;6.95;;;3.10;;
40609;SDS011;26316;55.976;37.140;2022-11-15T05:31:18;10.25;;;3.20;;
40609;SDS011;26316;55.976;37.140;2022-11-15T05:34:05;6.97;;;2.83;;
40609;SDS011;26316;55.976;37.140;2022-11-15T05:36:49;9.38;;;3.63;;
40609;SDS011;26316;55.976;37.140;2022-11-15T05:39:34;8.23;;;3.15;;
40609;SDS011;26316;55.976;37.140;2022-11-15T05:42:18;6.88;;;2.90;;
40609;SDS011;26316;55.976;37.140;2022-11-15T05:45:03;6.70;;;2.72;;
40609;SDS011;26316;55.976;37.140;2022-11-15T05:47:50;7.35;;;3.33;;
40609;SDS011;26316;55.976;37.140;2022-11-15T05:50:38;9.02;;;3.20;;
40609;SDS011;26316;55.976;37.140;2022-11-15T05:53:24;8.82;;;3.78;;
40609;SDS011;26316;55.976;37.140;2022-11-15T05:56:10;9.55;;;3.78;;
40609;SDS011;26316;55.976;37.140;2022-11-15T05:58:54;13.13;;;5.32;;
40609;SDS011;26316;55.976;37.140;2022-11-15T06:01:39;10.43;;;5.50;;
40609;SDS011;26316;55.976;37.140;2022-11-15T06:04:24;11.77;;;6.13;;
40609;SDS011;26316;55.976;37.140;2022-11-15T06:07:08;13.75;;;6.85;;
40609;SDS011;26316;55.976;37.140;2022-11-15T06:09:53;12.68;;;8.07;;
40609;SDS011;26316;55.976;37.140;2022-11-15T06:12:38;11.55;;;7.35;;
40609;SDS011;26316;55.976;37.140;2022-11-15T06:15:23;15.65;;;8.30;;
40609;SDS011;26316;55.976;37.140;2022-11-15T06:18:07;12.90;;;7.35;;
40609;SDS011;26316;55.976;37.140;2022-11-15T06:20:52;15.63;;;7.90;;
40609;SDS011;26316;55.976;37.140;2022-11-15T06:23:37;14.32;;;7.28;;
40609;SDS011;26316;55.976;37.140;2022-11-15T06:26:21;12.50;;;6.82;;
40609;SDS011;26316;55.976;37.140;2022-11-15T06:29:06;11.52;;;5.97;;
40609;SDS011;26316;55.976;37.140;2022-11-15T06:31:50;9.13;;;5.90;;
40609;SDS011;26316;55.976;37.140;2022-11-15T06:34:35;9.20;;;5.78;;
40609;SDS011;26316;55.976;37.140;2022-11-15T06:37:19;8.73;;;5.35;;
40609;SDS011;26316;55.976;37.140;2022-11-15T06:40:04;9.45;;;5.90;;
40609;SDS011;26316;55.976;37.140;2022-11-15T06:42:48;8.18;;;5.25;;
40609;SDS011;26316;55.976;37.140;2022-11-15T06:45:32;15.93;;;4.90;;
40609;SDS011;26316;55.976;37.140;2022-11-15T06:48:17;7.20;;;4.57;;
40609;SDS011;26316;55.976;37.140;2022-11-15T06:51:02;9.18;;;4.18;;
40609;SDS011;26316;55.976;37.140;2022-11-15T06:53:47;11.25;;;5.75;;
40609;SDS011;26316;55.976;37.140;2022-11-15T06:56:33;12.82;;;4.72;;
40609;SDS011;26316;55.976;37.140;2022-11-15T06:59:17;13.38;;;4.60;;
40609;SDS011;26316;55.976;37.140;2022-11-15T07:02:02;8.60;;;3.95;;
40609;SDS011;26316;55.976;37.140;2022-11-15T07:04:46;8.38;;;3.45;;
40609;SDS011;26316;55.976;37.140;2022-11-15T07:07:30;7.78;;;3.25;;
40609;SDS011;26316;55.976;37.140;2022-11-15T07:10:15;6.13;;;2.78;;
40609;SDS011;26316;55.976;37.140;2022-11-15T07:12:59;4.70;;;2.67;;
40609;SDS011;26316;55.976;37.140;2022-11-15T07:15:44;4.25;;;2.88;;
40609;SDS011;26316;55.976;37.140;2022-11-15T07:18:28;5.03;;;2.60;;
40609;SDS011;26316;55.976;37.140;2022-11-15T07:21:13;5.97;;;2.45;;
40609;SDS011;26316;55.976;37.140;2022-11-15T07:23:58;4.72;;;2.60;;
40609;SDS011;26316;55.976;37.140;2022-11-15T07:26:42;3.78;;;2.60;;
40609;SDS011;26316;55.976;37.140;2022-11-15T07:29:26;3.83;;;2.35;;
40609;SDS011;26316;55.976;37.140;2022-11-15T07:32:11;3.47;;;1.75;;
40609;SDS011;26316;55.976;37.140;2022-11-15T07:34:55;4.97;;;2.33;;
40609;SDS011;26316;55.976;37.140;2022-11-15T07:37:39;3.83;;;2.42;;
40609;SDS011;26316;55.976;37.140;2022-11-15T07:40:24;7.03;;;2.58;;
40609;SDS011;26316;55.976;37.140;2022-11-15T07:43:09;6.60;;;2.13;;
40609;SDS011;26316;55.976;37.140;2022-11-15T07:45:53;10.20;;;2.22;;
40609;SDS011;26316;55.976;37.140;2022-11-15T07:48:38;6.40;;;2.50;;
40609;SDS011;26316;55.976;37.140;2022-11-15T07:51:24;15.30;;;5.93;;
40609;SDS011;26316;55.976;37.140;2022-11-15T07:54:08;12.85;;;7.60;;
40609;SDS011;26316;55.976;37.140;2022-11-15T07:56:52;12.15;;;5.60;;
40609;SDS011;26316;55.976;37.140;2022-11-15T07:59:37;15.43;;;4.43;;
40609;SDS011;26316;55.976;37.140;2022-11-15T08:02:22;8.73;;;3.85;;
40609;SDS011;26316;55.976;37.140;2022-11-15T08:05:06;6.85;;;3.33;;
40609;SDS011;26316;55.976;37.140;2022-11-15T08:07:51;9.00;;;3.30;;
40609;SDS011;26316;55.976;37.140;2022-11-15T08:10:35;5.78;;;3.22;;
40609;SDS011;26316;55.976;37.140;2022-11-15T08:13:20;5.68;;;2.85;;
40609;SDS011;26316;55.976;37.140;2022-11-15T08:16:04;6.78;;;2.63;;
40609;SDS011;26316;55.976;37.140;2022-11-15T08:18:49;7.53;;;2.60;;
40609;SDS011;26316;55.976;37.140;2022-11-15T08:21:33;8.30;;;2.63;;
40609;SDS011;26316;55.976;37.140;2022-11-15T08:24:18;5.50;;;2.20;;
40609;SDS011;26316;55.976;37.140;2022-11-15T08:27:04;11.55;;;3.10;;
40609;SDS011;26316;55.976;37.140;2022-11-15T08:29:49;6.43;;;2.88;;
40609;SDS011;26316;55.976;37.140;2022-11-15T08:32:34;6.97;;;2.60;;
40609;SDS011;26316;55.976;37.140;2022-11-15T08:35:19;3.83;;;2.60;;
40609;SDS011;26316;55.976;37.140;2022-11-15T08:38:04;6.82;;;2.90;;
40609;SDS011;26316;55.976;37.140;2022-11-15T08:40:50;6.55;;;2.88;;
40609;SDS011;26316;55.976;37.140;2022-11-15T08:43:38;5.70;;;3.00;;
40609;SDS011;26316;55.976;37.140;2022-11-15T08:46:22;6.95;;;2.90;;
40609;SDS011;26316;55.976;37.140;2022-11-15T08:49:06;4.95;;;3.15;;
40609;SDS011;26316;55.976;37.140;2022-11-15T08:51:51;6.20;;;3.05;;
40609;SDS011;26316;55.976;37.140;2022-11-15T08:54:35;6.28;;;3.38;;
40609;SDS011;26316;55.976;37.140;2022-11-15T08:57:19;9.32;;;3.15;;
40609;SDS011;26316;55.976;37.140;2022-11-15T09:00:04;9.35;;;3.00;;
40609;SDS011;26316;55.976;37.140;2022-11-15T09:02:49;6.97;;;3.20;;
40609;SDS011;26316;55.976;37.140;2022-11-15T09:05:35;6.30;;;3.00;;
40609;SDS011;26316;55.976;37.140;2022-11-15T09:08:19;5.53;;;2.80;;
40609;SDS011;26316;55.976;37.140;2022-11-15T09:11:04;6.18;;;2.78;;
40609;SDS011;26316;55.976;37.140;2022-11-15T09:13:51;5.05;;;3.13;;
40609;SDS011;26316;55.976;37.140;2022-11-15T09:16:35;7.63;;;3.30;;
40609;SDS011;26316;55.976;37.140;2022-11-15T09:19:20;8.02;;;3.22;;
40609;SDS011;26316;55.976;37.140;2022-11-15T09:22:06;7.63;;;3.67;;
40609;SDS011;26316;55.976;37.140;2022-11-15T09:24:51;5.72;;;3.33;;
40609;SDS011;26316;55.976;37.140;2022-11-15T09:27:36;6.57;;;3.67;;
40609;SDS011;26316;55.976;37.140;2022-11-15T09:30:20;6.60;;;3.22;;
40609;SDS011;26316;55.976;37.140;2022-11-15T09:33:06;17.02;;;12.95;;
40609;SDS011;26316;55.976;37.140;2022-11-15T09:35:52;11.85;;;8.60;;
40609;SDS011;26316;55.976;37.140;2022-11-15T09:38:36;14.07;;;7.38;;
40609;SDS011;26316;55.976;37.140;2022-11-15T09:41:39;9.88;;;6.20;;
40609;SDS011;26316;55.976;37.140;2022-11-15T09:44:46;10.55;;;5.50;;
40609;SDS011;26316;55.976;37.140;2022-11-15T09:51:08;7.22;;;3.83;;
40609;SDS011;26316;55.976;37.140;2022-11-15T09:53:43;7.65;;;3.42;;
40609;SDS011;26316;55.976;37.140;2022-11-15T09:56:16;5.38;;;3.50;;
40609;SDS011;26316;55.976;37.140;2022-11-15T10:04:23;7.43;;;3.97;;
40609;SDS011;26316;55.976;37.140;2022-11-15T10:07:02;5.93;;;3.58;;
40609;SDS011;26316;55.976;37.140;2022-11-15T10:12:02;6.38;;;3.53;;
40609;SDS011;26316;55.976;37.140;2022-11-15T10:14:28;10.80;;;3.35;;
40609;SDS011;26316;55.976;37.140;2022-11-15T10:25:18;5.60;;;2.70;;
40609;SDS011;26316;55.976;37.140;2022-11-15T10:27:55;7.60;;;2.38;;
40609;SDS011;26316;55.976;37.140;2022-11-15T10:30:21;5.70;;;2.70;;
40609;SDS011;26316;55.976;37.140;2022-11-15T10:32:48;6.60;;;2.58;;
40609;SDS011;26316;55.976;37.140;2022-11-15T10:35:18;4.97;;;2.75;;
40609;SDS011;26316;55.976;37.140;2022-11-15T10:37:51;5.55;;;2.70;;
40609;SDS011;26316;55.976;37.140;2022-11-15T10:40:30;5.93;;;2.80;;
40609;SDS011;26316;55.976;37.140;2022-11-15T10:43:12;7.00;;;2.90;;
40609;SDS011;26316;55.976;37.140;2022-11-15T10:45:41;7.80;;;3.13;;
40609;SDS011;26316;55.976;37.140;2022-11-15T10:50:42;7.68;;;2.67;;
40609;SDS011;26316;55.976;37.140;2022-11-15T10:56:00;9.00;;;2.70;;
40609;SDS011;26316;55.976;37.140;2022-11-15T10:58:38;8.05;;;2.88;;
40609;SDS011;26316;55.976;37.140;2022-11-15T11:01:16;5.05;;;2.80;;
40609;SDS011;26316;55.976;37.140;2022-11-15T11:03:44;6.68;;;3.08;;
40609;SDS011;26316;55.976;37.140;2022-11-15T11:06:15;8.02;;;2.85;;
40609;SDS011;26316;55.976;37.140;2022-11-15T11:09:05;10.40;;;3.17;;
40609;SDS011;26316;55.976;37.140;2022-11-15T11:11:45;9.32;;;3.30;;
40609;SDS011;26316;55.976;37.140;2022-11-15T11:14:20;7.43;;;3.35;;
40609;SDS011;26316;55.976;37.140;2022-11-15T11:30:50;7.88;;;3.33;;
40609;SDS011;26316;55.976;37.140;2022-11-15T11:33:25;6.38;;;3.42;;
40609;SDS011;26316;55.976;37.140;2022-11-15T11:36:03;7.25;;;3.33;;
40609;SDS011;26316;55.976;37.140;2022-11-15T11:39:09;5.57;;;2.78;;
40609;SDS011;26316;55.976;37.140;2022-11-15T11:41:53;8.35;;;3.28;;
40609;SDS011;26316;55.976;37.140;2022-11-15T11:50:12;9.68;;;3.67;;
40609;SDS011;26316;55.976;37.140;2022-11-15T11:52:49;7.78;;;3.42;;
40609;SDS011;26316;55.976;37.140;2022-11-15T11:55:41;6.38;;;3.53;;
40609;SDS011;26316;55.976;37.140;2022-11-15T11:58:13;8.15;;;3.78;;
40609;SDS011;26316;55.976;37.140;2022-11-15T12:00:47;4.75;;;3.42;;
40609;SDS011;26316;55.976;37.140;2022-11-15T12:03:22;6.20;;;4.05;;
40609;SDS011;26316;55.976;37.140;2022-11-15T12:06:09;6.55;;;3.67;;
40609;SDS011;26316;55.976;37.140;2022-11-15T12:09:04;5.50;;;3.67;;
40609;SDS011;26316;55.976;37.140;2022-11-15T12:16:52;8.05;;;3.97;;
40609;SDS011;26316;55.976;37.140;2022-11-15T12:19:18;7.38;;;3.72;;
40609;SDS011;26316;55.976;37.140;2022-11-15T12:21:53;8.75;;;4.35;;
40609;SDS011;26316;55.976;37.140;2022-11-15T12:27:43;6.68;;;4.13;;
40609;SDS011;26316;55.976;37.140;2022-11-15T12:30:14;7.80;;;3.97;;
40609;SDS011;26316;55.976;37.140;2022-11-15T12:33:43;9.45;;;3.78;;
40609;SDS011;26316;55.976;37.140;2022-11-15T12:36:00;5.88;;;4.20;;
40609;SDS011;26316;55.976;37.140;2022-11-15T12:41:14;10.52;;;4.70;;
40609;SDS011;26316;55.976;37.140;2022-11-15T12:43:42;11.18;;;5.47;;
40609;SDS011;26316;55.976;37.140;2022-11-15T12:46:17;11.18;;;5.28;;
40609;SDS011;26316;55.976;37.140;2022-11-15T12:49:09;8.80;;;4.95;;
40609;SDS011;26316;55.976;37.140;2022-11-15T13:02:36;13.98;;;6.65;;
40609;SDS011;26316;55.976;37.140;2022-11-15T13:30:52;11.88;;;5.28;;
40609;SDS011;26316;55.976;37.140;2022-11-15T13:36:29;10.23;;;5.88;;
40609;SDS011;26316;55.976;37.140;2022-11-15T13:39:00;9.57;;;6.15;;
40609;SDS011;26316;55.976;37.140;2022-11-15T13:41:34;10.82;;;5.82;;
40609;SDS011;26316;55.976;37.140;2022-11-15T13:44:02;14.25;;;6.05;;
40609;SDS011;26316;55.976;37.140;2022-11-15T13:46:29;12.75;;;5.90;;
40609;SDS011;26316;55.976;37.140;2022-11-15T13:51:38;13.10;;;5.88;;
40609;SDS011;26316;55.976;37.140;2022-11-15T13:56:53;11.10;;;5.53;;
40609;SDS011;26316;55.976;37.140;2022-11-15T13:59:29;11.23;;;4.75;;
40609;SDS011;26316;55.976;37.140;2022-11-15T14:01:57;11.10;;;5.53;;
40609;SDS011;26316;55.976;37.140;2022-11-15T14:04:26;13.48;;;5.70;;
40609;SDS011;26316;55.976;37.140;2022-11-15T14:06:56;10.30;;;5.55;;
40609;SDS011;26316;55.976;37.140;2022-11-15T14:09:25;8.95;;;5.90;;
40609;SDS011;26316;55.976;37.140;2022-11-15T14:11:58;11.00;;;6.05;;
40609;SDS011;26316;55.976;37.140;2022-11-15T14:14:25;8.60;;;5.75;;
40609;SDS011;26316;55.976;37.140;2022-11-15T14:16:53;7.60;;;5.50;;
40609;SDS011;26316;55.976;37.140;2022-11-15T14:24:46;14.13;;;6.38;;
40609;SDS011;26316;55.976;37.140;2022-11-15T14:27:31;12.32;;;6.85;;
40609;SDS011;26316;55.976;37.140;2022-11-15T14:29:57;16.30;;;6.43;;
40609;SDS011;26316;55.976;37.140;2022-11-15T14:34:55;14.40;;;6.68;;
40609;SDS011;26316;55.976;37.140;2022-11-15T14:37:24;12.23;;;6.70;;
40609;SDS011;26316;55.976;37.140;2022-11-15T14:40:04;18.13;;;9.73;;
40609;SDS011;26316;55.976;37.140;2022-11-15T14:42:31;119.53;;;53.95;;
40609;SDS011;26316;55.976;37.140;2022-11-15T14:44:57;104.38;;;48.33;;
40609;SDS011;26316;55.976;37.140;2022-11-15T14:47:23;88.28;;;42.45;;
40609;SDS011;26316;55.976;37.140;2022-11-15T14:49:49;71.97;;;36.38;;
40609;SDS011;26316;55.976;37.140;2022-11-15T14:52:25;73.82;;;34.50;;
40609;SDS011;26316;55.976;37.140;2022-11-15T14:54:51;57.88;;;27.77;;
40609;SDS011;26316;55.976;37.140;2022-11-15T14:57:17;54.00;;;25.00;;
40609;SDS011;26316;55.976;37.140;2022-11-15T14:59:42;58.55;;;26.25;;
40609;SDS011;26316;55.976;37.140;2022-11-15T15:02:29;41.00;;;20.23;;
40609;SDS011;26316;55.976;37.140;2022-11-15T15:04:54;37.58;;;18.80;;
40609;SDS011;26316;55.976;37.140;2022-11-15T15:07:20;170.73;;;79.65;;
40609;SDS011;26316;55.976;37.140;2022-11-15T15:09:46;144.48;;;64.53;;
40609;SDS011;26316;55.976;37.140;2022-11-15T15:12:16;116.63;;;53.60;;
40609;SDS011;26316;55.976;37.140;2022-11-15T15:14:43;110.90;;;50.33;;
40609;SDS011;26316;55.976;37.140;2022-11-15T15:17:09;94.15;;;44.38;;
40609;SDS011;26316;55.976;37.140;2022-11-15T15:19:35;84.40;;;38.40;;
40609;SDS011;26316;55.976;37.140;2022-11-15T15:22:01;78.10;;;36.15;;
40609;SDS011;26316;55.976;37.140;2022-11-15T15:24:27;75.75;;;33.88;;
40609;SDS011;26316;55.976;37.140;2022-11-15T15:26:53;69.95;;;31.63;;
40609;SDS011;26316;55.976;37.140;2022-11-15T15:29:19;57.20;;;27.52;;
40609;SDS011;26316;55.976;37.140;2022-11-15T15:31:45;51.22;;;24.20;;
40609;SDS011;26316;55.976;37.140;2022-11-15T15:34:10;47.30;;;22.40;;
40609;SDS011;26316;55.976;37.140;2022-11-15T15:36:36;43.38;;;20.23;;
40609;SDS011;26316;55.976;37.140;2022-11-15T15:39:02;40.38;;;19.58;;
40609;SDS011;26316;55.976;37.140;2022-11-15T15:41:28;39.72;;;18.05;;
40609;SDS011;26316;55.976;37.140;2022-11-15T15:43:53;31.67;;;15.00;;
40609;SDS011;26316;55.976;37.140;2022-11-15T15:46:20;30.35;;;14.98;;
40609;SDS011;26316;55.976;37.140;2022-11-15T15:48:50;31.88;;;15.20;;
40609;SDS011;26316;55.976;37.140;2022-11-15T15:51:16;28.15;;;14.48;;
40609;SDS011;26316;55.976;37.140;2022-11-15T15:53:42;25.83;;;13.75;;
40609;SDS011;26316;55.976;37.140;2022-11-15T15:56:08;26.45;;;12.98;;
40609;SDS011;26316;55.976;37.140;2022-11-15T15:58:34;25.88;;;12.75;;
40609;SDS011;26316;55.976;37.140;2022-11-15T16:01:00;21.80;;;11.15;;
40609;SDS011;26316;55.976;37.140;2022-11-15T16:03:26;26.77;;;11.95;;
40609;SDS011;26316;55.976;37.140;2022-11-15T16:05:53;30.35;;;19.30;;
40609;SDS011;26316;55.976;37.140;2022-11-15T16:08:22;21.13;;;12.77;;
40609;SDS011;26316;55.976;37.140;2022-11-15T16:10:49;21.67;;;11.85;;
40609;SDS011;26316;55.976;37.140;2022-11-15T16:13:15;19.67;;;10.60;;
40609;SDS011;26316;55.976;37.140;2022-11-15T16:15:42;18.45;;;10.70;;
40609;SDS011;26316;55.976;37.140;2022-11-15T16:18:11;19.35;;;9.98;;
40609;SDS011;26316;55.976;37.140;2022-11-15T16:20:42;17.55;;;9.25;;
40609;SDS011;26316;55.976;37.140;2022-11-15T16:23:21;14.52;;;7.70;;
40609;SDS011;26316;55.976;37.140;2022-11-15T16:25:53;16.35;;;8.05;;
40609;SDS011;26316;55.976;37.140;2022-11-15T16:28:24;15.45;;;7.70;;
40609;SDS011;26316;55.976;37.140;2022-11-15T16:30:59;19.98;;;7.78;;
40609;SDS011;26316;55.976;37.140;2022-11-15T16:33:45;15.02;;;7.05;;
40609;SDS011;26316;55.976;37.140;2022-11-15T16:36:21;12.85;;;7.32;;
40609;SDS011;26316;55.976;37.140;2022-11-15T16:38:48;12.68;;;6.75;;
40609;SDS011;26316;55.976;37.140;2022-11-15T16:41:15;10.77;;;6.60;;
40609;SDS011;26316;55.976;37.140;2022-11-15T16:43:49;12.93;;;6.40;;
40609;SDS011;26316;55.976;37.140;2022-11-15T16:46:19;10.48;;;5.75;;
40609;SDS011;26316;55.976;37.140;2022-11-15T16:48:47;11.60;;;6.90;;
40609;SDS011;26316;55.976;37.140;2022-11-15T16:51:13;10.50;;;6.38;;
40609;SDS011;26316;55.976;37.140;2022-11-15T16:53:39;9.85;;;6.00;;
40609;SDS011;26316;55.976;37.140;2022-11-15T16:56:19;14.85;;;5.93;;
40609;SDS011;26316;55.976;37.140;2022-11-15T16:58:49;9.05;;;6.03;;
40609;SDS011;26316;55.976;37.140;2022-11-15T17:01:19;9.57;;;6.07;;
40609;SDS011;26316;55.976;37.140;2022-11-15T17:03:50;11.07;;;5.95;;
40609;SDS011;26316;55.976;37.140;2022-11-15T17:06:16;10.95;;;5.45;;
40609;SDS011;26316;55.976;37.140;2022-11-15T17:08:45;10.20;;;5.78;;
40609;SDS011;26316;55.976;37.140;2022-11-15T17:11:18;9.32;;;5.10;;
40609;SDS011;26316;55.976;37.140;2022-11-15T17:13:46;8.90;;;5.32;;
40609;SDS011;26316;55.976;37.140;2022-11-15T17:16:13;10.95;;;5.93;;
40609;SDS011;26316;55.976;37.140;2022-11-15T17:18:41;7.32;;;4.82;;
40609;SDS011;26316;55.976;37.140;2022-11-15T17:21:13;11.40;;;6.67;;
40609;SDS011;26316;55.976;37.140;2022-11-15T17:23:45;7.07;;;5.05;;
40609;SDS011;26316;55.976;37.140;2022-11-15T17:26:12;9.93;;;5.75;;
40609;SDS011;26316;55.976;37.140;2022-11-15T17:28:39;8.48;;;5.40;;
40609;SDS011;26316;55.976;37.140;2022-11-15T17:31:07;10.27;;;6.20;;
40609;SDS011;26316;55.976;37.140;2022-11-15T17:33:35;8.93;;;5.60;;
40609;SDS011;26316;55.976;37.140;2022-11-15T17:36:02;10.43;;;5.82;;
40609;SDS011;26316;55.976;37.140;2022-11-15T17:38:31;8.68;;;5.65;;
40609;SDS011;26316;55.976;37.140;2022-11-15T17:41:03;11.48;;;6.20;;
40609;SDS011;26316;55.976;37.140;2022-11-15T17:43:35;6.28;;;5.35;;
40609;SDS011;26316;55.976;37.140;2022-11-15T17:46:09;8.63;;;5.78;;
40609;SDS011;26316;55.976;37.140;2022-11-15T17:48:37;10.23;;;5.75;;
40609;SDS011;26316;55.976;37.140;2022-11-15T17:51:05;10.45;;;6.03;;
40609;SDS011;26316;55.976;37.140;2022-11-15T17:53:33;9.02;;;6.03;;
40609;SDS011;26316;55.976;37.140;2022-11-15T17:56:01;8.25;;;5.32;;
40609;SDS011;26316;55.976;37.140;2022-11-15T17:58:28;7.47;;;5.53;;
40609;SDS011;26316;55.976;37.140;2022-11-15T18:00:55;9.27;;;5.45;;
40609;SDS011;26316;55.976;37.140;2022-11-15T18:03:49;10.77;;;5.03;;